sensor_id;sensor_type;location;lat;lon;timestamp;pressure;altitude;pressure_sealevel;temperature;humidity
45113;BME280;30873;53.908;27.576;2022-07-09T00:03:51;1017.5;;;20.5;57.3
45113;BME280;30873;53.908;27.576;2022-07-09T00:08:51;1017.5;;;20.4;57.8
45113;BME280;30873;53.908;27.576;2022-07-09T00:13:51;1017.5;;;20.3;58.2
45113;BME280;30873;53.908;27.576;2022-07-09T00:18:51;1017.5;;;20.2;58.5
45113;BME280;30873;53.908;27.576;2022-07-09T00:23:51;1017.5;;;20.2;58.8
45113;BME280;30873;53.908;27.576;2022-07-09T00:28:51;1017.6;;;20.1;59.3
45113;BME280;30873;53.908;27.576;2022-07-09T00:33:51;1017.6;;;20;59.7
45113;BME280;30873;53.908;27.576;2022-07-09T00:38:51;1017.6;;;20;59.8
45113;BME280;30873;53.908;27.576;2022-07-09T00:43:51;1017.6;;;20.1;59.9
45113;BME280;30873;53.908;27.576;2022-07-09T00:48:51;1017.6;;;20;60.2
45113;BME280;30873;53.908;27.576;2022-07-09T00:53:51;1017.6;;;19.9;60.6
45113;BME280;30873;53.908;27.576;2022-07-09T00:58:51;1017.6;;;19.9;60.8
45113;BME280;30873;53.908;27.576;2022-07-09T01:03:51;1017.6;;;19.9;60.8
45113;BME280;30873;53.908;27.576;2022-07-09T01:08:51;1017.6;;;19.9;60.9
45113;BME280;30873;53.908;27.576;2022-07-09T01:13:51;1017.5;;;20;60.8
45113;BME280;30873;53.908;27.576;2022-07-09T01:18:51;1017.5;;;20.1;60.7
45113;BME280;30873;53.908;27.576;2022-07-09T01:23:51;1017.5;;;20.2;60.6
45113;BME280;30873;53.908;27.576;2022-07-09T01:28:51;1017.4;;;20.2;60.6
45113;BME280;30873;53.908;27.576;2022-07-09T01:33:51;1017.3;;;20.3;60.7
45113;BME280;30873;53.908;27.576;2022-07-09T01:38:51;1017.3;;;20.3;60.8
45113;BME280;30873;53.908;27.576;2022-07-09T01:43:51;1017.2;;;20.3;60.7
45113;BME280;30873;53.908;27.576;2022-07-09T01:48:51;1017.2;;;20.3;60.9
45113;BME280;30873;53.908;27.576;2022-07-09T01:53:51;1017.1;;;20.2;61
45113;BME280;30873;53.908;27.576;2022-07-09T01:58:51;1017.1;;;20.1;61.2
45113;BME280;30873;53.908;27.576;2022-07-09T02:03:51;1017.1;;;20.1;61.1
45113;BME280;30873;53.908;27.576;2022-07-09T02:08:51;1017.1;;;20.1;60.9
45113;BME280;30873;53.908;27.576;2022-07-09T02:13:51;1017.1;;;20;61
45113;BME280;30873;53.908;27.576;2022-07-09T02:18:51;1017.2;;;20;60.9
45113;BME280;30873;53.908;27.576;2022-07-09T02:23:51;1017.2;;;20;61
45113;BME280;30873;53.908;27.576;2022-07-09T02:28:51;1017.2;;;20;60.9
45113;BME280;30873;53.908;27.576;2022-07-09T02:33:51;1017.2;;;20.2;60.4
45113;BME280;30873;53.908;27.576;2022-07-09T02:38:51;1017.2;;;20.4;59.9
45113;BME280;30873;53.908;27.576;2022-07-09T02:43:51;1017.2;;;20.6;59.2
45113;BME280;30873;53.908;27.576;2022-07-09T02:48:51;1017.2;;;20.8;58.7
45113;BME280;30873;53.908;27.576;2022-07-09T02:53:51;1017.2;;;20.7;58.8
45113;BME280;30873;53.908;27.576;2022-07-09T02:58:51;1017.2;;;20.7;58.6
45113;BME280;30873;53.908;27.576;2022-07-09T03:03:51;1017.1;;;20.7;58.6
45113;BME280;30873;53.908;27.576;2022-07-09T03:08:51;1017.2;;;20.8;58.7
45113;BME280;30873;53.908;27.576;2022-07-09T03:13:51;1017.1;;;21;58.8
45113;BME280;30873;53.908;27.576;2022-07-09T03:18:51;1017.1;;;21.2;58.4
45113;BME280;30873;53.908;27.576;2022-07-09T03:23:51;1017.1;;;21.4;57.9
45113;BME280;30873;53.908;27.576;2022-07-09T03:28:51;1017.1;;;21.6;57.2
45113;BME280;30873;53.908;27.576;2022-07-09T03:33:51;1017.2;;;21.9;56.2
45113;BME280;30873;53.908;27.576;2022-07-09T03:38:51;1017.2;;;22;55.6
45113;BME280;30873;53.908;27.576;2022-07-09T03:43:51;1017.2;;;22;55.6
45113;BME280;30873;53.908;27.576;2022-07-09T03:48:51;1017.1;;;22;55
45113;BME280;30873;53.908;27.576;2022-07-09T03:53:51;1017.1;;;22.2;54.6
45113;BME280;30873;53.908;27.576;2022-07-09T03:58:51;1017.1;;;22.3;54.2
45113;BME280;30873;53.908;27.576;2022-07-09T04:03:51;1017.1;;;22.4;54.1
45113;BME280;30873;53.908;27.576;2022-07-09T04:08:51;1017.1;;;22.4;54.2
45113;BME280;30873;53.908;27.576;2022-07-09T04:13:51;1017.1;;;22.5;54.1
45113;BME280;30873;53.908;27.576;2022-07-09T04:18:51;1017.1;;;22.6;54
45113;BME280;30873;53.908;27.576;2022-07-09T04:23:51;1017.1;;;22.8;53.7
45113;BME280;30873;53.908;27.576;2022-07-09T04:28:51;1017;;;23;52.9
45113;BME280;30873;53.908;27.576;2022-07-09T04:33:51;1017;;;22.8;52.9
45113;BME280;30873;53.908;27.576;2022-07-09T04:38:51;1017;;;22.7;52.9
45113;BME280;30873;53.908;27.576;2022-07-09T04:43:51;1017.1;;;22.6;53.4
45113;BME280;30873;53.908;27.576;2022-07-09T04:48:51;1017.1;;;22.5;54
45113;BME280;30873;53.908;27.576;2022-07-09T04:53:51;1017.1;;;22.6;54.2
45113;BME280;30873;53.908;27.576;2022-07-09T04:58:51;1017.1;;;22.6;54.4
45113;BME280;30873;53.908;27.576;2022-07-09T05:03:51;1017.1;;;22.4;54.8
45113;BME280;30873;53.908;27.576;2022-07-09T05:08:51;1017;;;22.5;55
45113;BME280;30873;53.908;27.576;2022-07-09T05:13:51;1017;;;22.7;54.6
45113;BME280;30873;53.908;27.576;2022-07-09T05:18:51;1017.1;;;22.8;54.5
45113;BME280;30873;53.908;27.576;2022-07-09T05:23:52;1017;;;22.9;54.2
45113;BME280;30873;53.908;27.576;2022-07-09T05:28:51;1017;;;23;54
45113;BME280;30873;53.908;27.576;2022-07-09T05:33:51;1016.9;;;23.1;53.9
45113;BME280;30873;53.908;27.576;2022-07-09T05:38:51;1016.9;;;23.2;53.9
45113;BME280;30873;53.908;27.576;2022-07-09T05:43:51;1017;;;23.3;53.6
45113;BME280;30873;53.908;27.576;2022-07-09T05:48:51;1017;;;23.3;53.7
45113;BME280;30873;53.908;27.576;2022-07-09T05:53:51;1017;;;23.4;53.7
45113;BME280;30873;53.908;27.576;2022-07-09T05:58:51;1017;;;23.4;53.8
45113;BME280;30873;53.908;27.576;2022-07-09T06:03:51;1016.9;;;23.6;53.8
45113;BME280;30873;53.908;27.576;2022-07-09T06:08:51;1017;;;23.7;53.9
45113;BME280;30873;53.908;27.576;2022-07-09T06:13:51;1016.9;;;23.8;53.6
45113;BME280;30873;53.908;27.576;2022-07-09T06:18:51;1016.9;;;23.6;53.6
45113;BME280;30873;53.908;27.576;2022-07-09T06:23:51;1016.8;;;23.4;54
45113;BME280;30873;53.908;27.576;2022-07-09T06:28:51;1016.8;;;23.6;53.5
45113;BME280;30873;53.908;27.576;2022-07-09T06:33:51;1016.8;;;23.9;52.4
45113;BME280;30873;53.908;27.576;2022-07-09T06:38:51;1016.8;;;24.7;50.5
45113;BME280;30873;53.908;27.576;2022-07-09T06:43:51;1016.7;;;25;49.7
45113;BME280;30873;53.908;27.576;2022-07-09T06:48:51;1016.7;;;25.2;49.2
45113;BME280;30873;53.908;27.576;2022-07-09T06:53:51;1016.7;;;25.4;48.6
45113;BME280;30873;53.908;27.576;2022-07-09T06:58:51;1016.6;;;25.6;48.1
45113;BME280;30873;53.908;27.576;2022-07-09T07:03:51;1016.6;;;25.8;47.4
45113;BME280;30873;53.908;27.576;2022-07-09T07:08:51;1016.6;;;25.8;47.8
45113;BME280;30873;53.908;27.576;2022-07-09T07:13:51;1016.6;;;25.7;47.9
45113;BME280;30873;53.908;27.576;2022-07-09T07:18:51;1016.5;;;25.5;48.7
45113;BME280;30873;53.908;27.576;2022-07-09T07:23:51;1016.5;;;25.4;49.1
45113;BME280;30873;53.908;27.576;2022-07-09T07:28:51;1016.5;;;26;47.9
45113;BME280;30873;53.908;27.576;2022-07-09T07:33:51;1016.5;;;26.3;47
45113;BME280;30873;53.908;27.576;2022-07-09T07:38:51;1016.4;;;26.6;46.5
45113;BME280;30873;53.908;27.576;2022-07-09T07:43:51;1016.4;;;26.5;46.9
45113;BME280;30873;53.908;27.576;2022-07-09T07:48:51;1016.4;;;26;48
45113;BME280;30873;53.908;27.576;2022-07-09T07:53:51;1016.4;;;25.8;48.4
45113;BME280;30873;53.908;27.576;2022-07-09T07:58:52;1016.4;;;25.3;49.6
45113;BME280;30873;53.908;27.576;2022-07-09T08:03:51;1016.3;;;24.8;50.8
45113;BME280;30873;53.908;27.576;2022-07-09T08:08:51;1016.3;;;24.7;50.9
45113;BME280;30873;53.908;27.576;2022-07-09T08:13:51;1016.2;;;25.6;49.1
45113;BME280;30873;53.908;27.576;2022-07-09T08:18:51;1016.2;;;26.4;47.4
45113;BME280;30873;53.908;27.576;2022-07-09T08:23:51;1016.2;;;26.1;47.7
45113;BME280;30873;53.908;27.576;2022-07-09T08:28:51;1016.2;;;26.1;47.1
45113;BME280;30873;53.908;27.576;2022-07-09T08:33:51;1016.1;;;26.5;46
45113;BME280;30873;53.908;27.576;2022-07-09T08:38:51;1016.1;;;26.1;47
45113;BME280;30873;53.908;27.576;2022-07-09T08:43:52;1016.1;;;26.1;46.8
45113;BME280;30873;53.908;27.576;2022-07-09T08:48:51;1016;;;26.7;45.3
45113;BME280;30873;53.908;27.576;2022-07-09T08:53:51;1016.1;;;26.4;45.8
45113;BME280;30873;53.908;27.576;2022-07-09T08:58:51;1016.1;;;25.9;47.3
45113;BME280;30873;53.908;27.576;2022-07-09T09:03:51;1016;;;26.5;45.9
45113;BME280;30873;53.908;27.576;2022-07-09T09:08:53;1016;;;26.4;45.2
45113;BME280;30873;53.908;27.576;2022-07-09T09:13:51;1015.9;;;26.8;44.1
45113;BME280;30873;53.908;27.576;2022-07-09T09:18:52;1016;;;27.5;42.9
45113;BME280;30873;53.908;27.576;2022-07-09T09:23:52;1015.9;;;28.1;41.4
45113;BME280;30873;53.908;27.576;2022-07-09T09:28:53;1015.9;;;28.2;41
45113;BME280;30873;53.908;27.576;2022-07-09T09:33:53;1015.9;;;28.1;41.7
45113;BME280;30873;53.908;27.576;2022-07-09T09:38:51;1015.9;;;29.3;39.9
45113;BME280;30873;53.908;27.576;2022-07-09T09:43:51;1015.8;;;28.7;40.2
45113;BME280;30873;53.908;27.576;2022-07-09T09:48:51;1015.8;;;28.2;41.2
45113;BME280;30873;53.908;27.576;2022-07-09T09:53:51;1015.8;;;28.4;41.2
45113;BME280;30873;53.908;27.576;2022-07-09T09:58:51;1015.8;;;28.6;40.8
45113;BME280;30873;53.908;27.576;2022-07-09T10:03:51;1015.8;;;28.7;40.1
45113;BME280;30873;53.908;27.576;2022-07-09T10:08:51;1015.7;;;28.4;40
45113;BME280;30873;53.908;27.576;2022-07-09T10:13:52;1015.6;;;28.4;40.3
45113;BME280;30873;53.908;27.576;2022-07-09T10:18:51;1015.6;;;28.4;40.1
45113;BME280;30873;53.908;27.576;2022-07-09T10:23:51;1015.6;;;28.3;40.1
45113;BME280;30873;53.908;27.576;2022-07-09T10:28:51;1015.5;;;29.3;38.4
45113;BME280;30873;53.908;27.576;2022-07-09T10:33:53;1015.5;;;30;37.2
45113;BME280;30873;53.908;27.576;2022-07-09T10:38:54;1015.5;;;30.8;35.8
45113;BME280;30873;53.908;27.576;2022-07-09T10:43:52;1015.5;;;30.5;35.8
45113;BME280;30873;53.908;27.576;2022-07-09T10:48:51;1015.5;;;29.7;37.5
45113;BME280;30873;53.908;27.576;2022-07-09T10:53:51;1015.5;;;29.8;37.9
45113;BME280;30873;53.908;27.576;2022-07-09T10:58:51;1015.5;;;30.4;36.9
45113;BME280;30873;53.908;27.576;2022-07-09T11:03:51;1015.4;;;31.4;35.1
45113;BME280;30873;53.908;27.576;2022-07-09T11:08:51;1015.4;;;32.5;32.8
45113;BME280;30873;53.908;27.576;2022-07-09T11:13:51;1015.3;;;33.8;30.4
45113;BME280;30873;53.908;27.576;2022-07-09T11:18:51;1015.2;;;35.9;28.1
45113;BME280;30873;53.908;27.576;2022-07-09T11:23:51;1015.2;;;35.5;28.1
45113;BME280;30873;53.908;27.576;2022-07-09T11:28:51;1015.2;;;32.6;31.7
45113;BME280;30873;53.908;27.576;2022-07-09T11:33:51;1015.2;;;30.3;35.1
45113;BME280;30873;53.908;27.576;2022-07-09T11:38:51;1015.2;;;28.8;37.7
45113;BME280;30873;53.908;27.576;2022-07-09T11:43:51;1015.3;;;27.7;40.2
45113;BME280;30873;53.908;27.576;2022-07-09T11:48:51;1015.3;;;27.2;42.3
45113;BME280;30873;53.908;27.576;2022-07-09T11:53:51;1015.3;;;27.1;42
45113;BME280;30873;53.908;27.576;2022-07-09T11:58:51;1015.3;;;29.1;38.5
45113;BME280;30873;53.908;27.576;2022-07-09T12:03:51;1015.1;;;31.3;34.4
45113;BME280;30873;53.908;27.576;2022-07-09T12:08:58;1015;;;31;34.6
45113;BME280;30873;53.908;27.576;2022-07-09T12:13:51;1015.1;;;29.9;35.8
45113;BME280;30873;53.908;27.576;2022-07-09T12:18:51;1015.1;;;28.9;36.8
45113;BME280;30873;53.908;27.576;2022-07-09T12:23:51;1015;;;30.7;33.7
45113;BME280;30873;53.908;27.576;2022-07-09T12:28:51;1015;;;33.7;29.1
45113;BME280;30873;53.908;27.576;2022-07-09T12:33:51;1014.8;;;35.2;26
45113;BME280;30873;53.908;27.576;2022-07-09T12:38:51;1014.8;;;35;25.1
45113;BME280;30873;53.908;27.576;2022-07-09T12:43:51;1014.8;;;34.3;24.8
45113;BME280;30873;53.908;27.576;2022-07-09T12:48:51;1014.7;;;36.1;22.7
45113;BME280;30873;53.908;27.576;2022-07-09T12:53:51;1014.7;;;37.8;21.8
45113;BME280;30873;53.908;27.576;2022-07-09T12:58:51;1014.6;;;38;22
45113;BME280;30873;53.908;27.576;2022-07-09T13:03:51;1014.6;;;38;22
45113;BME280;30873;53.908;27.576;2022-07-09T13:08:51;1014.5;;;36.2;23.1
45113;BME280;30873;53.908;27.576;2022-07-09T13:13:51;1014.4;;;35;24
45113;BME280;30873;53.908;27.576;2022-07-09T13:18:51;1014.4;;;32.1;27
45113;BME280;30873;53.908;27.576;2022-07-09T13:23:51;1014.4;;;30.5;29.1
45113;BME280;30873;53.908;27.576;2022-07-09T13:28:51;1014.5;;;29.6;30.4
45113;BME280;30873;53.908;27.576;2022-07-09T13:33:51;1014.5;;;29.4;30.7
45113;BME280;30873;53.908;27.576;2022-07-09T13:38:51;1014.4;;;29.6;30.2
45113;BME280;30873;53.908;27.576;2022-07-09T13:43:51;1014.4;;;29.2;30.8
45113;BME280;30873;53.908;27.576;2022-07-09T13:48:51;1014.4;;;29.3;30.8
45113;BME280;30873;53.908;27.576;2022-07-09T13:53:51;1014.3;;;29.6;30.3
45113;BME280;30873;53.908;27.576;2022-07-09T13:58:51;1014.3;;;29.3;30.5
45113;BME280;30873;53.908;27.576;2022-07-09T14:03:51;1014.3;;;29.7;30.6
45113;BME280;30873;53.908;27.576;2022-07-09T14:08:51;1014.2;;;32.8;27
45113;BME280;30873;53.908;27.576;2022-07-09T14:13:51;1014.1;;;33.6;26.2
45113;BME280;30873;53.908;27.576;2022-07-09T14:18:51;1014;;;32.6;26.9
45113;BME280;30873;53.908;27.576;2022-07-09T14:23:51;1013.9;;;34.5;25.2
45113;BME280;30873;53.908;27.576;2022-07-09T14:28:51;1013.8;;;38;21.3
45113;BME280;30873;53.908;27.576;2022-07-09T14:33:51;1013.8;;;37.4;21.8
45113;BME280;30873;53.908;27.576;2022-07-09T14:38:51;1013.8;;;35.2;24
45113;BME280;30873;53.908;27.576;2022-07-09T14:43:51;1013.8;;;37.7;21.6
45113;BME280;30873;53.908;27.576;2022-07-09T14:48:51;1013.7;;;38.8;20.4
45113;BME280;30873;53.908;27.576;2022-07-09T14:53:51;1013.7;;;40.5;19
45113;BME280;30873;53.908;27.576;2022-07-09T14:58:51;1013.7;;;39.9;18.5
45113;BME280;30873;53.908;27.576;2022-07-09T15:03:51;1013.7;;;38.4;19.1
45113;BME280;30873;53.908;27.576;2022-07-09T15:08:51;1013.6;;;39.4;18.6
45113;BME280;30873;53.908;27.576;2022-07-09T15:13:51;1013.6;;;39.5;18.4
45113;BME280;30873;53.908;27.576;2022-07-09T15:18:51;1013.6;;;35.5;22.1
45113;BME280;30873;53.908;27.576;2022-07-09T15:23:51;1013.6;;;35.4;22.7
45113;BME280;30873;53.908;27.576;2022-07-09T15:28:51;1013.6;;;35.1;23
45113;BME280;30873;53.908;27.576;2022-07-09T15:33:51;1013.6;;;33.8;24.2
45113;BME280;30873;53.908;27.576;2022-07-09T15:38:51;1013.5;;;35.2;23.1
45113;BME280;30873;53.908;27.576;2022-07-09T15:43:51;1013.5;;;38.5;20.2
45113;BME280;30873;53.908;27.576;2022-07-09T15:48:51;1013.5;;;40.1;18.8
45113;BME280;30873;53.908;27.576;2022-07-09T15:53:51;1013.5;;;39.6;18.9
45113;BME280;30873;53.908;27.576;2022-07-09T15:58:51;1013.5;;;38;20.1
45113;BME280;30873;53.908;27.576;2022-07-09T16:03:51;1013.5;;;36.8;21
45113;BME280;30873;53.908;27.576;2022-07-09T16:08:51;1013.5;;;33.5;24.4
45113;BME280;30873;53.908;27.576;2022-07-09T16:13:51;1013.5;;;31;27.5
45113;BME280;30873;53.908;27.576;2022-07-09T16:18:51;1013.5;;;29.4;29.6
45113;BME280;30873;53.908;27.576;2022-07-09T16:23:51;1013.4;;;28.8;30.9
45113;BME280;30873;53.908;27.576;2022-07-09T16:28:51;1013.4;;;31.6;27.7
45113;BME280;30873;53.908;27.576;2022-07-09T16:33:51;1013.4;;;34.4;24.7
45113;BME280;30873;53.908;27.576;2022-07-09T16:38:51;1013.4;;;35.8;23
45113;BME280;30873;53.908;27.576;2022-07-09T16:43:51;1013.4;;;35.6;23.3
45113;BME280;30873;53.908;27.576;2022-07-09T16:48:51;1013.4;;;32.1;27.1
45113;BME280;30873;53.908;27.576;2022-07-09T16:53:51;1013.4;;;31.4;28.5
45113;BME280;30873;53.908;27.576;2022-07-09T16:58:51;1013.4;;;29.8;30.3
45113;BME280;30873;53.908;27.576;2022-07-09T17:03:51;1013.4;;;29.5;30.9
45113;BME280;30873;53.908;27.576;2022-07-09T17:08:51;1013.4;;;30.8;29.1
45113;BME280;30873;53.908;27.576;2022-07-09T17:13:51;1013.4;;;31.8;27.9
45113;BME280;30873;53.908;27.576;2022-07-09T17:18:51;1013.4;;;31.8;27.6
45113;BME280;30873;53.908;27.576;2022-07-09T17:23:51;1013.4;;;29.4;30.2
45113;BME280;30873;53.908;27.576;2022-07-09T17:28:51;1013.4;;;27.6;32.2
45113;BME280;30873;53.908;27.576;2022-07-09T17:33:51;1013.4;;;27.8;32
45113;BME280;30873;53.908;27.576;2022-07-09T17:38:51;1013.4;;;28.8;30.4
45113;BME280;30873;53.908;27.576;2022-07-09T17:43:51;1013.3;;;29.9;29.3
45113;BME280;30873;53.908;27.576;2022-07-09T17:48:51;1013.3;;;30;29.8
45113;BME280;30873;53.908;27.576;2022-07-09T17:53:51;1013.2;;;29.8;30.5
45113;BME280;30873;53.908;27.576;2022-07-09T17:58:51;1013.2;;;29.4;31.4
45113;BME280;30873;53.908;27.576;2022-07-09T18:03:51;1013.3;;;28.1;33.6
45113;BME280;30873;53.908;27.576;2022-07-09T18:08:51;1013.3;;;27.2;35.4
45113;BME280;30873;53.908;27.576;2022-07-09T18:13:51;1013.3;;;26.6;36.6
45113;BME280;30873;53.908;27.576;2022-07-09T18:18:51;1013.3;;;25.4;38.8
45113;BME280;30873;53.908;27.576;2022-07-09T18:23:51;1013.3;;;24.6;40.4
45113;BME280;30873;53.908;27.576;2022-07-09T18:28:51;1013.4;;;24;41.8
45113;BME280;30873;53.908;27.576;2022-07-09T18:33:51;1013.3;;;23.6;42.7
45113;BME280;30873;53.908;27.576;2022-07-09T18:38:51;1013.3;;;23.3;43
45113;BME280;30873;53.908;27.576;2022-07-09T18:43:51;1013.3;;;23;44
45113;BME280;30873;53.908;27.576;2022-07-09T18:48:51;1013.3;;;22.9;44.5
45113;BME280;30873;53.908;27.576;2022-07-09T18:53:51;1013.4;;;22.8;45.2
45113;BME280;30873;53.908;27.576;2022-07-09T18:58:51;1013.4;;;22.7;45.8
45113;BME280;30873;53.908;27.576;2022-07-09T19:03:51;1013.4;;;22.6;46.1
45113;BME280;30873;53.908;27.576;2022-07-09T19:08:51;1013.4;;;22.6;46.5
45113;BME280;30873;53.908;27.576;2022-07-09T19:13:51;1013.4;;;22.5;46.8
45113;BME280;30873;53.908;27.576;2022-07-09T19:18:51;1013.4;;;22.4;47.2
45113;BME280;30873;53.908;27.576;2022-07-09T19:23:51;1013.4;;;22.3;47.5
45113;BME280;30873;53.908;27.576;2022-07-09T19:28:51;1013.4;;;22.2;48.1
45113;BME280;30873;53.908;27.576;2022-07-09T19:33:51;1013.4;;;22.1;48.6
45113;BME280;30873;53.908;27.576;2022-07-09T19:38:51;1013.3;;;22;48.8
45113;BME280;30873;53.908;27.576;2022-07-09T19:43:51;1013.3;;;21.7;49.1
45113;BME280;30873;53.908;27.576;2022-07-09T19:48:51;1013.3;;;21.5;49.5
45113;BME280;30873;53.908;27.576;2022-07-09T19:53:51;1013.2;;;21.4;49.8
45113;BME280;30873;53.908;27.576;2022-07-09T19:58:51;1013.2;;;21.3;49.6
45113;BME280;30873;53.908;27.576;2022-07-09T20:03:51;1013.2;;;21.1;49.9
45113;BME280;30873;53.908;27.576;2022-07-09T20:08:51;1013.2;;;21;50.2
45113;BME280;30873;53.908;27.576;2022-07-09T20:13:51;1013.1;;;20.9;50.5
45113;BME280;30873;53.908;27.576;2022-07-09T20:18:51;1013.1;;;20.8;50.9
45113;BME280;30873;53.908;27.576;2022-07-09T20:23:51;1013.1;;;20.8;51.1
45113;BME280;30873;53.908;27.576;2022-07-09T20:28:51;1013.1;;;20.6;51.5
45113;BME280;30873;53.908;27.576;2022-07-09T20:33:51;1013.2;;;20.5;51.9
45113;BME280;30873;53.908;27.576;2022-07-09T20:38:51;1013.2;;;20.5;52.2
45113;BME280;30873;53.908;27.576;2022-07-09T20:43:51;1013.2;;;20.5;52.5
45113;BME280;30873;53.908;27.576;2022-07-09T20:48:51;1013.2;;;20.4;52.8
45113;BME280;30873;53.908;27.576;2022-07-09T20:53:51;1013.3;;;20.4;52.9
45113;BME280;30873;53.908;27.576;2022-07-09T20:58:51;1013.2;;;20.3;53.3
45113;BME280;30873;53.908;27.576;2022-07-09T21:03:51;1013.2;;;20.2;53.7
45113;BME280;30873;53.908;27.576;2022-07-09T21:08:51;1013.1;;;20.1;54
45113;BME280;30873;53.908;27.576;2022-07-09T21:13:51;1013.1;;;20.1;54.4
45113;BME280;30873;53.908;27.576;2022-07-09T21:18:51;1013;;;20;54.9
45113;BME280;30873;53.908;27.576;2022-07-09T21:23:51;1013;;;19.9;55.3
45113;BME280;30873;53.908;27.576;2022-07-09T21:28:51;1013;;;19.9;55.5
45113;BME280;30873;53.908;27.576;2022-07-09T21:33:51;1013;;;19.9;55.8
45113;BME280;30873;53.908;27.576;2022-07-09T21:38:51;1012.9;;;19.8;56.2
45113;BME280;30873;53.908;27.576;2022-07-09T21:43:51;1012.9;;;19.8;56.2
45113;BME280;30873;53.908;27.576;2022-07-09T21:48:51;1012.8;;;19.7;56.6
45113;BME280;30873;53.908;27.576;2022-07-09T21:53:51;1012.8;;;19.7;56.8
45113;BME280;30873;53.908;27.576;2022-07-09T21:58:51;1012.7;;;19.6;57.1
45113;BME280;30873;53.908;27.576;2022-07-09T22:03:51;1012.7;;;19.5;57.5
45113;BME280;30873;53.908;27.576;2022-07-09T22:08:51;1012.7;;;19.4;57.9
45113;BME280;30873;53.908;27.576;2022-07-09T22:13:51;1012.6;;;19.3;58.4
45113;BME280;30873;53.908;27.576;2022-07-09T22:18:51;1012.6;;;19.3;58.4
45113;BME280;30873;53.908;27.576;2022-07-09T22:23:51;1012.5;;;19.2;58.7
45113;BME280;30873;53.908;27.576;2022-07-09T22:28:51;1012.5;;;19.1;59
45113;BME280;30873;53.908;27.576;2022-07-09T22:33:51;1012.4;;;19.1;59.2
45113;BME280;30873;53.908;27.576;2022-07-09T22:38:51;1012.4;;;19;59.5
45113;BME280;30873;53.908;27.576;2022-07-09T22:43:51;1012.3;;;18.9;59.7
45113;BME280;30873;53.908;27.576;2022-07-09T22:48:51;1012.3;;;18.9;59.9
45113;BME280;30873;53.908;27.576;2022-07-09T22:53:51;1012.3;;;18.8;60
45113;BME280;30873;53.908;27.576;2022-07-09T22:58:51;1012.2;;;18.8;60.1
45113;BME280;30873;53.908;27.576;2022-07-09T23:03:51;1012.3;;;18.8;60.3
45113;BME280;30873;53.908;27.576;2022-07-09T23:08:51;1012.3;;;18.8;60.7
45113;BME280;30873;53.908;27.576;2022-07-09T23:13:51;1012.3;;;18.7;61.1
45113;BME280;30873;53.908;27.576;2022-07-09T23:18:51;1012.3;;;18.6;61.6
45113;BME280;30873;53.908;27.576;2022-07-09T23:23:51;1012.3;;;18.6;62.1
45113;BME280;30873;53.908;27.576;2022-07-09T23:28:51;1012.3;;;18.5;62.2
45113;BME280;30873;53.908;27.576;2022-07-09T23:33:51;1012.3;;;18.5;62.2
45113;BME280;30873;53.908;27.576;2022-07-09T23:38:51;1012.3;;;18.5;62.4
45113;BME280;30873;53.908;27.576;2022-07-09T23:43:51;1012.3;;;18.4;62.6
45113;BME280;30873;53.908;27.576;2022-07-09T23:48:51;1012.3;;;18.4;62.6
45113;BME280;30873;53.908;27.576;2022-07-09T23:53:51;1012.3;;;18.5;62.6
45113;BME280;30873;53.908;27.576;2022-07-09T23:58:51;1012.4;;;18.5;62.4
